Time;durP1;ratioP1;P1;durP2;ratioP2;P2;SDS_P1;SDS_P2;PMS_P1;PMS_P2;Temp;Humidity;BMP_temperature;BMP_pressure;BME280_temperature;BME280_humidity;BME280_pressure;Samples;Min_cycle;Max_cycle;Signal;HPM_P1;HPM_P2
2022/04/24 00:00:45;;;;;;;48.95;32.38;;;18.10;69.00;;;;;;5094278;28;20028;-82
2022/04/24 00:03:11;;;;;;;51.22;33.20;;;18.00;69.30;;;;;;5080455;28;20024;-81
2022/04/24 00:05:36;;;;;;;46.50;31.77;;;18.10;69.50;;;;;;5087075;28;20053;-80
2022/04/24 00:08:02;;;;;;;53.67;33.40;;;18.40;68.30;;;;;;5084464;28;20051;-83
2022/04/24 00:10:28;;;;;;;49.00;32.83;;;18.50;68.00;;;;;;5084389;28;20417;-81
2022/04/24 00:12:53;;;;;;;51.08;33.65;;;18.70;67.60;;;;;;5087776;28;20054;-81
2022/04/24 00:15:19;;;;;;;48.03;31.85;;;18.80;67.30;;;;;;5089171;28;20540;-81
2022/04/24 00:17:45;;;;;;;52.30;33.25;;;18.80;66.60;;;;;;5105612;28;20378;-81
2022/04/24 00:20:10;;;;;;;59.78;35.45;;;18.80;66.80;;;;;;5080790;28;20037;-80
2022/04/24 00:22:36;;;;;;;50.58;32.15;;;18.90;67.90;;;;;;5080387;28;20028;-81
2022/04/24 00:25:06;;;;;;;47.83;32.22;;;19.10;66.40;;;;;;5085922;28;20036;-81
2022/04/24 00:27:32;;;;;;;45.70;30.77;;;19.30;65.80;;;;;;5083902;28;20016;-86
2022/04/24 00:29:58;;;;;;;47.58;31.60;;;19.10;66.00;;;;;;5098782;28;20016;-84
2022/04/24 00:32:23;;;;;;;54.88;34.72;;;19.00;66.90;;;;;;5087310;28;20059;-81
2022/04/24 00:34:49;;;;;;;49.30;32.35;;;19.10;65.90;;;;;;5079214;28;20009;-81
2022/04/24 00:37:15;;;;;;;47.08;30.42;;;19.00;66.00;;;;;;5084835;28;20482;-80
2022/04/24 00:39:40;;;;;;;43.85;29.55;;;18.90;66.50;;;;;;5079545;28;20039;-93
2022/04/24 00:42:09;;;;;;;41.92;29.20;;;18.90;66.20;;;;;;5075919;28;20778;-95
2022/04/24 00:44:35;;;;;;;45.85;30.17;;;18.70;66.80;;;;;;5102602;28;20008;-81
2022/04/24 00:47:13;;;;;;;51.85;31.70;;;18.60;68.00;;;;;;5086867;28;20081;-91
2022/04/24 00:49:41;;;;;;;44.17;29.48;;;18.80;67.10;;;;;;5094140;28;20046;-80
2022/04/24 00:52:07;;;;;;;48.97;31.42;;;18.40;68.30;;;;;;5096062;28;20040;-95
2022/04/24 00:54:33;;;;;;;43.50;30.65;;;18.30;68.10;;;;;;5095698;28;20476;-83
2022/04/24 00:56:59;;;;;;;44.63;30.20;;;18.10;68.50;;;;;;5078751;28;20515;-81
2022/04/24 00:59:25;;;;;;;39.65;28.45;;;18.10;68.80;;;;;;5076660;28;20043;-80
2022/04/24 01:01:51;;;;;;;44.53;29.73;;;17.80;69.40;;;;;;5094413;28;20039;-83
2022/04/24 01:04:18;;;;;;;44.22;29.05;;;17.20;71.20;;;;;;5077401;28;20028;-79
2022/04/24 01:06:44;;;;;;;42.85;29.13;;;17.00;71.90;;;;;;5092590;28;20024;-77
2022/04/24 01:09:21;;;;;;;43.60;28.60;;;16.60;73.10;;;;;;5074985;28;20028;-94
2022/04/24 01:11:49;;;;;;;42.63;28.55;;;15.80;76.30;;;;;;5094070;28;20111;-81
2022/04/24 01:14:16;;;;;;;37.78;26.55;;;15.20;78.30;;;;;;5074027;28;20043;-80
2022/04/24 01:16:43;;;;;;;37.53;27.27;;;15.00;80.20;;;;;;5079122;28;20107;-80
2022/04/24 01:19:08;;;;;;;41.65;28.10;;;15.30;79.50;;;;;;5080570;28;20032;-94
2022/04/24 01:21:34;;;;;;;43.78;29.45;;;16.10;77.40;;;;;;5072407;28;20073;-81
2022/04/24 01:24:04;;;;;;;46.00;30.10;;;17.10;74.30;;;;;;5075440;28;20028;-90
2022/04/24 01:26:30;;;;;;;44.30;29.70;;;17.80;71.20;;;;;;5093622;28;20108;-92
2022/04/24 01:28:55;;;;;;;41.10;28.33;;;18.20;70.10;;;;;;5092663;28;20075;-82
2022/04/24 01:31:22;;;;;;;48.15;30.45;;;18.20;69.50;;;;;;5075464;28;20035;-81
2022/04/24 01:33:48;;;;;;;42.70;28.60;;;18.20;68.60;;;;;;5075505;28;20115;-90
2022/04/24 01:36:13;;;;;;;40.20;27.75;;;18.00;69.60;;;;;;5091714;28;20111;-84
2022/04/24 01:38:40;;;;;;;43.10;29.60;;;18.00;69.70;;;;;;5077865;28;20056;-80
2022/04/24 01:41:06;;;;;;;38.65;27.60;;;17.90;69.90;;;;;;5079680;28;20023;-92
2022/04/24 01:43:32;;;;;;;43.92;28.70;;;17.70;70.50;;;;;;5096555;28;20039;-83
2022/04/24 01:45:58;;;;;;;45.38;30.27;;;17.80;70.40;;;;;;5075162;28;20437;-82
2022/04/24 01:48:23;;;;;;;40.65;27.98;;;18.00;69.50;;;;;;5074980;28;20036;-89
2022/04/24 01:50:53;;;;;;;40.55;27.88;;;18.20;68.70;;;;;;5070749;28;20029;-91
2022/04/24 01:53:19;;;;;;;35.83;25.35;;;18.40;68.40;;;;;;5056822;28;20068;-93
2022/04/24 01:55:45;;;;;;;38.67;27.05;;;18.60;67.00;;;;;;5055841;28;20118;-83
2022/04/24 01:58:11;;;;;;;37.70;26.77;;;18.50;67.20;;;;;;5076892;28;20348;-82
2022/04/24 02:00:37;;;;;;;36.38;25.58;;;18.30;68.10;;;;;;5077389;28;20047;-82
2022/04/24 02:03:02;;;;;;;33.88;25.13;;;18.10;68.40;;;;;;5073860;28;20028;-92
2022/04/24 02:05:28;;;;;;;34.50;24.55;;;18.00;68.80;;;;;;5074590;28;20468;-94
2022/04/24 02:07:54;;;;;;;35.20;24.65;;;18.10;68.80;;;;;;5074591;28;20021;-88
2022/04/24 02:10:19;;;;;;;38.95;26.92;;;17.80;68.80;;;;;;5074231;28;20435;-82
2022/04/24 02:12:46;;;;;;;36.55;24.88;;;17.90;69.20;;;;;;5057970;28;20098;-82
2022/04/24 02:15:12;;;;;;;36.75;25.45;;;17.90;69.00;;;;;;5059116;28;20475;-84
2022/04/24 02:17:38;;;;;;;35.33;24.83;;;18.00;68.80;;;;;;5073823;28;20143;-81
2022/04/24 02:20:04;;;;;;;37.10;25.20;;;17.90;68.90;;;;;;5069808;28;20073;-86
2022/04/24 02:22:34;;;;;;;36.60;25.42;;;18.10;68.70;;;;;;5075973;28;20030;-83
2022/04/24 02:25:00;;;;;;;33.25;23.45;;;18.30;67.80;;;;;;5074985;28;20048;-87
2022/04/24 02:27:26;;;;;;;36.85;26.00;;;18.20;67.90;;;;;;5073087;28;20025;-82
2022/04/24 02:29:53;;;;;;;35.17;22.95;;;18.40;67.50;;;;;;5076065;28;20032;-87
2022/04/24 02:32:18;;;;;;;29.98;22.63;;;18.60;66.60;;;;;;5074871;28;20048;-86
2022/04/24 02:34:44;;;;;;;35.97;24.20;;;18.60;66.80;;;;;;5074777;28;20143;-88
2022/04/24 02:37:10;;;;;;;32.95;23.70;;;18.70;66.90;;;;;;5074018;28;20418;-88
2022/04/24 02:39:36;;;;;;;31.50;22.60;;;19.00;65.50;;;;;;5072995;28;20078;-86
2022/04/24 02:42:02;;;;;;;28.48;20.88;;;18.90;65.50;;;;;;5065546;28;20024;-88
2022/04/24 02:44:28;;;;;;;31.95;22.27;;;18.70;65.60;;;;;;5069602;28;20033;-86
2022/04/24 02:46:53;;;;;;;29.83;21.05;;;18.40;66.20;;;;;;5074560;28;20025;-88
2022/04/24 02:49:19;;;;;;;29.48;22.35;;;18.10;67.90;;;;;;5072651;28;20025;-89
2022/04/24 02:51:45;;;;;;;33.45;22.73;;;17.90;68.30;;;;;;5051948;28;20037;-89
2022/04/24 02:54:11;;;;;;;30.25;22.33;;;18.10;67.90;;;;;;5054282;28;20160;-88
2022/04/24 02:56:36;;;;;;;30.40;22.10;;;18.10;67.50;;;;;;5057461;28;20043;-90
2022/04/24 02:59:02;;;;;;;35.95;23.70;;;18.00;68.00;;;;;;5056027;28;20032;-92
2022/04/24 03:01:30;;;;;;;31.55;22.52;;;18.10;68.30;;;;;;5057910;28;20460;-91
2022/04/24 03:03:56;;;;;;;31.02;22.25;;;18.40;67.10;;;;;;5056881;28;20086;-94
2022/04/24 03:06:22;;;;;;;34.92;23.38;;;18.50;66.80;;;;;;5075932;28;20052;-90
2022/04/24 03:08:48;;;;;;;31.20;22.27;;;18.50;66.10;;;;;;5058891;28;20025;-81
2022/04/24 03:11:15;;;;;;;30.92;21.95;;;18.40;66.60;;;;;;5055815;28;20070;-89
2022/04/24 03:13:41;;;;;;;32.53;23.45;;;18.30;67.10;;;;;;5073921;28;20060;-92
2022/04/24 03:16:07;;;;;;;29.23;21.17;;;18.00;68.00;;;;;;5074944;28;20060;-85
2022/04/24 03:18:32;;;;;;;31.35;22.45;;;17.80;68.00;;;;;;5057971;28;20060;-81
2022/04/24 03:21:01;;;;;;;31.98;22.30;;;17.80;68.70;;;;;;5074754;28;20020;-88
2022/04/24 03:23:27;;;;;;;29.33;22.13;;;17.90;67.90;;;;;;5057453;28;20492;-90
2022/04/24 03:25:53;;;;;;;28.83;20.70;;;17.90;68.50;;;;;;5057734;28;20024;-80
2022/04/24 03:28:18;;;;;;;31.85;22.08;;;17.70;68.40;;;;;;5075045;28;20099;-86
2022/04/24 03:30:44;;;;;;;30.20;20.30;;;17.80;68.30;;;;;;5055882;28;20020;-83
2022/04/24 03:33:10;;;;;;;29.70;21.70;;;17.70;68.00;;;;;;5052795;28;20041;-84
2022/04/24 03:35:36;;;;;;;31.30;22.05;;;17.70;68.30;;;;;;5055106;28;20025;-82
2022/04/24 03:38:02;;;;;;;31.00;22.38;;;17.70;68.50;;;;;;5037097;28;20052;-90
2022/04/24 03:40:28;;;;;;;28.27;20.42;;;17.70;68.50;;;;;;5057713;28;20387;-87
2022/04/24 03:42:54;;;;;;;30.65;21.00;;;17.50;68.10;;;;;;5057438;28;20029;-89
2022/04/24 03:45:20;;;;;;;30.85;21.92;;;17.40;69.00;;;;;;5057423;28;20024;-90
2022/04/24 03:47:47;;;;;;;30.30;21.85;;;17.50;68.80;;;;;;5056193;28;20024;-94
2022/04/24 03:50:14;;;;;;;27.73;20.38;;;17.30;69.40;;;;;;5071366;28;20036;-87
2022/04/24 03:52:40;;;;;;;26.48;19.55;;;17.60;68.60;;;;;;5047312;28;20087;-88
2022/04/24 03:55:06;;;;;;;27.45;20.77;;;16.80;69.50;;;;;;5036626;28;20502;-89
2022/04/24 03:57:33;;;;;;;27.75;19.98;;;16.30;71.80;;;;;;5035237;28;20025;-88
2022/04/24 03:59:59;;;;;;;25.63;19.02;;;16.20;72.80;;;;;;5072846;28;20036;-89
2022/04/24 04:02:25;;;;;;;28.67;21.23;;;16.50;72.10;;;;;;5056168;28;20415;-87
2022/04/24 04:04:51;;;;;;;31.65;20.80;;;17.10;70.20;;;;;;5055275;28;20541;-85
2022/04/24 04:07:17;;;;;;;27.63;19.40;;;17.70;68.80;;;;;;5073919;28;20021;-87
2022/04/24 04:09:43;;;;;;;30.67;20.98;;;17.90;68.00;;;;;;5073114;28;20077;-87
2022/04/24 04:12:10;;;;;;;29.73;20.88;;;17.90;68.10;;;;;;5074076;28;20395;-93
2022/04/24 04:14:36;;;;;;;30.40;21.98;;;18.00;67.70;;;;;;5055675;28;20028;-87
2022/04/24 04:17:02;;;;;;;29.60;21.42;;;17.80;67.40;;;;;;5056613;28;20031;-91
2022/04/24 04:19:29;;;;;;;29.25;20.77;;;17.60;67.90;;;;;;5073555;28;20051;-84
2022/04/24 04:21:54;;;;;;;27.17;19.98;;;17.60;68.30;;;;;;5054695;28;20395;-83
2022/04/24 04:24:20;;;;;;;27.23;19.88;;;17.40;68.00;;;;;;5055396;28;20031;-89
2022/04/24 04:26:46;;;;;;;28.42;20.48;;;17.40;68.60;;;;;;5056165;28;20033;-80
2022/04/24 04:29:11;;;;;;;29.45;21.13;;;17.40;68.40;;;;;;5072996;28;20028;-85
2022/04/24 04:31:37;;;;;;;31.10;21.38;;;17.40;69.30;;;;;;5056185;28;20490;-89
2022/04/24 04:34:03;;;;;;;26.30;20.13;;;17.60;68.90;;;;;;5073174;28;20040;-84
2022/04/24 04:36:29;;;;;;;27.20;19.83;;;17.20;69.50;;;;;;5055023;28;20025;-84
2022/04/24 04:38:55;;;;;;;29.05;21.42;;;16.50;71.70;;;;;;5055791;28;20518;-86
2022/04/24 04:41:20;;;;;;;32.03;20.85;;;16.50;71.80;;;;;;5072547;28;20016;-82
2022/04/24 04:43:46;;;;;;;28.88;20.77;;;16.70;71.10;;;;;;5073051;28;20082;-85
2022/04/24 04:46:12;;;;;;;30.63;22.10;;;17.00;70.40;;;;;;5051120;28;20111;-78
2022/04/24 04:48:37;;;;;;;28.25;20.02;;;16.80;70.40;;;;;;5055423;28;20031;-91
2022/04/24 04:51:03;;;;;;;28.15;20.98;;;17.20;69.60;;;;;;5060419;28;20058;-86
2022/04/24 04:53:29;;;;;;;26.80;19.90;;;17.50;68.60;;;;;;5073296;28;20036;-89
2022/04/24 04:55:55;;;;;;;28.38;20.70;;;17.60;69.10;;;;;;5073589;28;20494;-82
2022/04/24 04:58:20;;;;;;;30.27;20.98;;;17.80;67.60;;;;;;5094102;28;20386;-82
2022/04/24 05:00:46;;;;;;;29.55;21.33;;;18.00;67.30;;;;;;5083531;28;20024;-87
2022/04/24 05:03:12;;;;;;;31.23;22.10;;;18.20;66.60;;;;;;5093781;28;20028;-93
2022/04/24 05:05:37;;;;;;;30.08;22.45;;;18.00;67.90;;;;;;5071972;28;20027;-82
2022/04/24 05:08:03;;;;;;;29.95;22.13;;;18.20;66.60;;;;;;5076287;28;20541;-88
2022/04/24 05:10:29;;;;;;;30.90;21.90;;;18.00;67.30;;;;;;5073851;28;20024;-87
2022/04/24 05:12:55;;;;;;;31.27;22.52;;;18.00;67.20;;;;;;5085094;28;20475;-79
2022/04/24 05:15:21;;;;;;;30.73;21.95;;;18.20;66.90;;;;;;5062038;28;20077;-91
2022/04/24 05:17:47;;;;;;;28.52;21.45;;;18.10;66.80;;;;;;5061299;28;20028;-89
2022/04/24 05:20:13;;;;;;;27.13;20.45;;;17.80;67.50;;;;;;5058391;28;20020;-80
2022/04/24 05:22:40;;;;;;;29.13;20.67;;;17.90;67.60;;;;;;5076839;28;20032;-83
2022/04/24 05:25:09;;;;;;;27.20;20.63;;;17.70;68.60;;;;;;5077254;28;20054;-87
2022/04/24 05:27:36;;;;;;;26.42;20.02;;;17.60;68.80;;;;;;5075451;28;20048;-80
2022/04/24 05:30:07;;;;;;;29.77;21.42;;;18.00;68.00;;;;;;5060771;28;20031;-89
2022/04/24 05:32:46;;;;;;;30.70;21.95;;;18.20;66.80;;;;;;5058331;28;20027;-92
2022/04/24 05:35:13;;;;;;;30.17;21.50;;;18.30;66.50;;;;;;4723079;28;9999891;-92
2022/04/24 05:37:40;;;;;;;30.65;21.73;;;18.40;66.30;;;;;;5057163;28;20017;-85
2022/04/24 05:40:06;;;;;;;27.50;21.10;;;18.00;67.00;;;;;;5075236;28;20024;-91
2022/04/24 05:42:33;;;;;;;28.38;20.75;;;17.80;68.40;;;;;;5075031;28;20024;-84
2022/04/24 05:45:00;;;;;;;28.90;21.35;;;17.90;68.00;;;;;;5056594;28;20097;-90
2022/04/24 05:47:26;;;;;;;29.67;22.70;;;18.00;68.40;;;;;;5065547;28;20074;-86
2022/04/24 05:49:52;;;;;;;29.58;22.60;;;18.10;67.30;;;;;;5063927;28;20025;-85
2022/04/24 05:52:18;;;;;;;31.77;22.90;;;18.00;68.10;;;;;;5067887;28;20043;-89
2022/04/24 05:54:44;;;;;;;30.45;22.58;;;18.10;67.40;;;;;;5075288;28;20052;-78
2022/04/24 05:57:09;;;;;;;34.03;23.85;;;18.30;67.00;;;;;;5065210;28;20052;-80
2022/04/24 05:59:35;;;;;;;31.15;23.33;;;18.30;66.90;;;;;;5071148;28;20068;-82
2022/04/24 06:02:01;;;;;;;28.13;21.85;;;18.20;66.70;;;;;;5062312;28;20061;-84
2022/04/24 06:04:27;;;;;;;30.10;22.95;;;18.50;66.50;;;;;;5067333;28;20032;-80
2022/04/24 06:06:52;;;;;;;34.55;24.10;;;18.20;67.60;;;;;;5074162;28;20505;-90
2022/04/24 06:09:19;;;;;;;30.73;22.92;;;18.20;67.70;;;;;;5073867;28;20436;-87
2022/04/24 06:11:45;;;;;;;28.63;22.70;;;18.50;67.00;;;;;;5073880;28;20111;-90
2022/04/24 06:14:11;;;;;;;32.05;23.40;;;18.60;67.30;;;;;;5070703;28;20036;-90
2022/04/24 06:16:37;;;;;;;29.92;23.48;;;19.00;66.40;;;;;;5071348;28;20021;-87
2022/04/24 06:19:03;;;;;;;32.47;24.40;;;19.10;65.40;;;;;;5071520;28;20039;-83
2022/04/24 06:21:29;;;;;;;32.50;24.10;;;19.00;65.40;;;;;;5074076;28;20078;-86
2022/04/24 06:23:55;;;;;;;30.63;23.48;;;18.50;66.50;;;;;;5056870;28;20273;-88
2022/04/24 06:26:20;;;;;;;29.83;22.42;;;18.50;66.50;;;;;;5066643;28;20827;-85
2022/04/24 06:28:46;;;;;;;34.65;24.67;;;18.60;66.30;;;;;;5067481;28;20542;-92
2022/04/24 06:31:12;;;;;;;31.80;24.30;;;18.50;66.60;;;;;;5067068;28;20021;-90
2022/04/24 06:33:37;;;;;;;31.33;24.20;;;18.20;67.70;;;;;;5073455;28;20040;-80
2022/04/24 06:36:03;;;;;;;33.30;24.92;;;18.20;68.00;;;;;;5061640;28;20028;-80
2022/04/24 06:38:29;;;;;;;36.55;25.23;;;18.40;67.50;;;;;;5069714;28;20035;-89
2022/04/24 06:40:54;;;;;;;34.78;26.33;;;18.00;68.40;;;;;;5059694;28;20025;-78
2022/04/24 06:43:20;;;;;;;34.45;25.90;;;17.70;69.40;;;;;;5060437;28;20059;-86
2022/04/24 06:45:46;;;;;;;34.80;26.17;;;17.70;69.50;;;;;;5067401;28;20025;-86
2022/04/24 06:48:15;;;;;;;39.05;27.83;;;18.10;69.30;;;;;;5068873;28;20459;-80
2022/04/24 06:50:44;;;;;;;36.13;26.67;;;18.30;67.90;;;;;;5065015;28;20119;-80
2022/04/24 06:53:17;;;;;;;33.50;26.30;;;18.70;68.20;;;;;;5076150;28;20108;-81
2022/04/24 06:55:44;;;;;;;34.00;25.50;;;19.10;67.00;;;;;;5067025;28;20139;-91
2022/04/24 06:58:13;;;;;;;34.15;27.08;;;19.30;66.20;;;;;;5084646;28;20020;-87
2022/04/24 07:00:42;;;;;;;36.08;26.92;;;19.40;66.20;;;;;;5051293;28;20045;-82
2022/04/24 07:03:16;;;;;;;32.72;25.45;;;19.40;66.40;;;;;;5062281;28;20020;-91
2022/04/24 07:05:42;;;;;;;32.83;25.83;;;19.50;65.60;;;;;;5068031;28;20505;-89
2022/04/24 07:08:08;;;;;;;34.83;25.90;;;19.60;65.30;;;;;;5058539;28;20447;-83
2022/04/24 07:10:35;;;;;;;33.78;25.77;;;19.60;65.20;;;;;;5072270;28;20807;-88
2022/04/24 07:13:01;;;;;;;35.20;26.65;;;19.60;65.30;;;;;;5065159;28;20048;-89
2022/04/24 07:15:31;;;;;;;33.13;25.10;;;19.70;64.70;;;;;;5056803;28;20055;-90
2022/04/24 07:17:57;;;;;;;34.50;26.40;;;19.90;65.30;;;;;;5056720;28;20385;-83
2022/04/24 07:20:23;;;;;;;42.83;29.88;;;20.00;64.80;;;;;;5056369;28;20502;-83
2022/04/24 07:22:53;;;;;;;39.05;28.17;;;20.00;64.90;;;;;;5058092;28;20032;-85
2022/04/24 07:25:23;;;;;;;35.90;27.60;;;19.40;65.60;;;;;;5067696;28;20433;-93
2022/04/24 07:27:49;;;;;;;29.75;24.48;;;19.20;66.90;;;;;;5055010;28;20029;-90
2022/04/24 07:30:17;;;;;;;33.13;25.17;;;19.50;66.20;;;;;;5055962;28;20020;-91
2022/04/24 07:32:48;;;;;;;33.80;25.60;;;20.10;66.70;;;;;;5047413;28;20470;-79
2022/04/24 07:35:21;;;;;;;30.98;24.02;;;21.50;63.50;;;;;;5045714;28;20048;-78
2022/04/24 07:37:47;;;;;;;31.10;24.73;;;21.30;62.40;;;;;;5051877;28;20032;-82
2022/04/24 07:40:23;;;;;;;29.73;23.38;;;20.30;64.60;;;;;;5041081;28;20035;-80
2022/04/24 07:43:10;;;;;;;31.05;24.05;;;19.70;66.20;;;;;;5048476;28;20051;-90
2022/04/24 07:45:49;;;;;;;30.38;23.75;;;19.10;67.50;;;;;;5046817;28;20058;-79
2022/04/24 07:48:16;;;;;;;34.33;24.52;;;19.40;66.70;;;;;;5039558;28;20028;-82
2022/04/24 07:50:49;;;;;;;31.33;24.55;;;20.00;65.70;;;;;;5063266;28;20482;-83
2022/04/24 07:53:16;;;;;;;31.25;24.75;;;20.80;64.90;;;;;;5074895;28;20028;-82
2022/04/24 07:55:48;;;;;;;30.42;24.70;;;21.50;63.20;;;;;;5073913;28;20031;-81
2022/04/24 07:58:14;;;;;;;32.50;25.60;;;21.70;62.70;;;;;;5059855;28;20127;-84
2022/04/24 08:00:41;;;;;;;31.05;25.77;;;22.00;61.70;;;;;;5073936;28;20502;-84
2022/04/24 08:03:09;;;;;;;28.90;24.83;;;22.10;62.00;;;;;;4720728;28;10000193;-80
2022/04/24 08:05:43;;;;;;;30.33;24.83;;;22.60;60.00;;;;;;5059502;28;20025;-83
2022/04/24 08:08:14;;;;;;;28.55;24.33;;;22.60;60.80;;;;;;5053785;28;20024;-86
2022/04/24 08:10:43;;;;;;;31.42;25.55;;;23.00;60.20;;;;;;5056434;28;20032;-91
2022/04/24 08:13:09;;;;;;;33.90;24.02;;;22.80;61.10;;;;;;5039299;28;20040;-77
2022/04/24 08:15:37;;;;;;;29.35;23.98;;;22.40;58.80;;;;;;5056155;28;20506;-80
2022/04/24 08:18:04;;;;;;;31.52;25.88;;;21.30;63.00;;;;;;5056403;28;20046;-91
2022/04/24 08:20:32;;;;;;;29.77;25.02;;;20.70;65.10;;;;;;5062964;28;20020;-83
2022/04/24 08:22:59;;;;;;;30.65;25.23;;;20.30;65.60;;;;;;5058513;28;20025;-88
2022/04/24 08:25:26;;;;;;;31.65;26.23;;;21.00;63.90;;;;;;5055536;28;20021;-84
2022/04/24 08:27:53;;;;;;;30.75;25.58;;;21.60;64.00;;;;;;5055424;28;20082;-81
2022/04/24 08:30:21;;;;;;;34.00;26.58;;;22.10;61.30;;;;;;5055960;28;20021;-86
2022/04/24 08:32:48;;;;;;;29.25;25.33;;;21.50;62.80;;;;;;5056487;28;20487;-81
2022/04/24 08:35:15;;;;;;;29.17;24.45;;;20.90;62.70;;;;;;5057240;28;20060;-88
2022/04/24 08:37:41;;;;;;;30.17;25.90;;;20.70;63.70;;;;;;5056018;28;20455;-84
2022/04/24 08:40:09;;;;;;;28.88;24.00;;;20.20;64.60;;;;;;5055182;28;20077;-86
2022/04/24 08:42:35;;;;;;;32.17;27.33;;;20.30;64.80;;;;;;5075216;28;20016;-86
2022/04/24 08:45:03;;;;;;;46.75;40.92;;;20.10;65.40;;;;;;5060715;28;20028;-93
2022/04/24 08:47:29;;;;;;;33.63;27.73;;;19.30;67.20;;;;;;5036993;28;20029;-84
2022/04/24 08:50:00;;;;;;;29.60;24.77;;;19.50;68.40;;;;;;5036980;28;20032;-87
2022/04/24 08:52:27;;;;;;;;;;;19.90;67.10;;;;;;5050931;28;20045;-92
2022/04/24 08:54:53;;;;;;;32.88;25.55;;;19.80;66.70;;;;;;5054436;28;19909;-80
2022/04/24 08:57:21;;;;;;;32.08;26.48;;;19.80;66.80;;;;;;5053608;28;20098;-94
2022/04/24 08:59:47;;;;;;;33.03;26.85;;;20.00;66.90;;;;;;5052804;28;20433;-93
2022/04/24 09:02:14;;;;;;;34.85;29.13;;;20.10;67.10;;;;;;5055791;28;20112;-88
2022/04/24 09:04:40;;;;;;;30.58;25.25;;;20.70;66.60;;;;;;5052685;28;20016;-86
2022/04/24 09:07:08;;;;;;;29.77;25.42;;;21.30;64.50;;;;;;5057621;28;20029;-84
2022/04/24 09:09:42;;;;;;;28.75;24.60;;;22.00;63.20;;;;;;5054776;28;20163;-88
2022/04/24 09:12:12;;;;;;;30.05;25.38;;;22.50;61.60;;;;;;5053281;28;20021;-82
2022/04/24 09:14:38;;;;;;;29.33;24.93;;;22.60;60.40;;;;;;5053288;28;20040;-87
2022/04/24 09:17:05;;;;;;;27.75;23.73;;;22.80;61.00;;;;;;5053868;28;20028;-84
2022/04/24 09:19:31;;;;;;;33.35;25.58;;;23.20;60.10;;;;;;5053244;28;20443;-90
2022/04/24 09:22:05;;;;;;;31.83;25.63;;;22.50;61.10;;;;;;5053472;28;20021;-86
2022/04/24 09:24:44;;;;;;;31.35;25.63;;;22.80;61.80;;;;;;5054323;28;20024;-87
2022/04/24 09:27:12;;;;;;;29.67;24.23;;;23.60;59.80;;;;;;5053038;28;20032;-95
2022/04/24 09:29:49;;;;;;;31.10;25.02;;;24.00;58.80;;;;;;5052300;28;20025;-82
2022/04/24 09:32:15;;;;;;;30.00;25.17;;;24.20;57.80;;;;;;5052966;28;20021;-86
2022/04/24 09:34:40;;;;;;;29.63;24.45;;;24.00;58.90;;;;;;5052789;28;20040;-82
2022/04/24 09:37:09;;;;;;;29.00;24.45;;;24.20;57.70;;;;;;5053251;28;20088;-86
2022/04/24 09:39:36;;;;;;;28.90;23.85;;;24.10;58.60;;;;;;5054255;28;20052;-85
2022/04/24 09:42:15;;;;;;;25.10;21.40;;;24.20;58.80;;;;;;5059192;28;20387;-85
2022/04/24 09:44:50;;;;;;;26.50;22.15;;;24.70;57.00;;;;;;5053011;28;20163;-88
2022/04/24 09:47:24;;;;;;;23.20;19.95;;;25.00;56.60;;;;;;5053167;28;20079;-86
2022/04/24 09:49:51;;;;;;;22.50;19.27;;;25.10;56.20;;;;;;5053754;28;20037;-86
2022/04/24 09:52:25;;;;;;;24.17;18.65;;;24.80;56.00;;;;;;5056752;28;20049;-96
2022/04/24 09:54:55;;;;;;;23.08;17.13;;;24.80;57.30;;;;;;5054569;28;20483;-86
2022/04/24 09:57:24;;;;;;;21.45;15.07;;;24.50;57.60;;;;;;5053608;28;20404;-87
2022/04/24 09:59:56;;;;;;;18.55;15.02;;;24.30;56.90;;;;;;5055341;28;20024;-88
2022/04/24 10:02:22;;;;;;;18.33;14.60;;;23.70;56.60;;;;;;4007541;28;10000650;-86
2022/04/24 10:04:48;;;;;;;18.90;14.20;;;23.20;57.30;;;;;;5055073;28;20070;-82
2022/04/24 10:07:16;;;;;;;17.63;13.30;;;22.80;57.70;;;;;;5054706;28;20040;-83
2022/04/24 10:09:44;;;;;;;15.65;13.13;;;22.30;58.20;;;;;;5056640;28;20486;-83
2022/04/24 10:12:15;;;;;;;19.30;13.00;;;22.20;58.90;;;;;;5057126;28;20025;-95
2022/04/24 10:14:55;;;;;;;18.63;13.30;;;22.90;58.90;;;;;;5056089;28;20060;-87
2022/04/24 10:17:34;;;;;;;;;;;22.80;58.80;;;;;;5061494;28;20025;-85
2022/04/24 10:20:38;;;;;;;18.42;12.38;;;22.90;59.60;;;;;;5057215;28;19966;-82
2022/04/24 10:23:04;;;;;;;20.75;15.13;;;23.50;56.30;;;;;;5073758;28;20452;-86
2022/04/24 10:25:39;;;;;;;18.55;13.50;;;22.60;58.60;;;;;;5058724;28;20016;-85
2022/04/24 10:28:12;;;;;;;21.05;14.40;;;22.80;58.70;;;;;;5058304;28;20032;-85
2022/04/24 10:30:56;;;;;;;17.27;14.52;;;22.90;59.20;;;;;;5074543;28;20571;-88
2022/04/24 10:33:24;;;;;;;19.42;14.75;;;22.80;59.30;;;;;;5056169;28;20041;-94
2022/04/24 10:35:54;;;;;;;17.25;15.20;;;22.10;60.60;;;;;;5057489;28;20057;-91
2022/04/24 10:38:22;;;;;;;23.35;15.93;;;22.00;61.90;;;;;;5056578;28;20496;-85
2022/04/24 10:41:05;;;;;;;17.60;15.30;;;21.70;61.50;;;;;;5057878;28;20036;-91
2022/04/24 10:43:51;;;;;;;17.85;15.07;;;22.70;60.80;;;;;;5083160;28;20052;-87
2022/04/24 10:46:34;;;;;;;16.77;14.45;;;23.50;59.60;;;;;;5056299;28;20025;-95
2022/04/24 10:49:08;;;;;;;16.67;13.95;;;24.20;57.60;;;;;;5060957;28;20087;-94
2022/04/24 10:51:35;;;;;;;20.33;16.13;;;24.60;58.10;;;;;;5080430;28;20080;-86
2022/04/24 10:54:15;;;;;;;13.98;11.07;;;24.90;56.40;;;;;;5056163;28;20491;-88
2022/04/24 10:56:42;;;;;;;5.60;3.20;;;24.90;53.60;;;;;;5058156;28;20104;-87
2022/04/24 10:59:09;;;;;;;6.60;4.13;;;24.70;49.80;;;;;;5060716;28;20024;-94
2022/04/24 11:01:36;;;;;;;6.07;2.97;;;24.90;51.70;;;;;;5059090;28;20025;-88
2022/04/24 11:04:06;;;;;;;4.47;2.10;;;24.50;51.10;;;;;;5059833;28;20009;-92
2022/04/24 11:06:32;;;;;;;;;;;24.00;50.00;;;;;;5055162;28;20029;-89
2022/04/24 11:09:09;;;;;;;7.43;2.00;;;23.00;50.60;;;;;;5055207;28;19911;-92
2022/04/24 11:11:45;;;;;;;6.60;2.00;;;22.20;53.30;;;;;;5054006;28;20021;-84
2022/04/24 11:14:11;;;;;;;4.35;1.75;;;22.60;53.30;;;;;;5053545;28;20037;-81
2022/04/24 11:16:37;;;;;;;6.07;3.05;;;22.00;52.20;;;;;;5053743;28;20017;-93
2022/04/24 11:19:02;;;;;;;89.10;51.60;;;22.10;52.90;;;;;;5053977;28;20029;-85
2022/04/24 11:21:28;;;;;;;7.25;2.80;;;22.40;52.40;;;;;;5070791;28;20025;-88
2022/04/24 11:24:00;;;;;;;6.82;2.25;;;22.40;51.90;;;;;;5054023;28;20029;-85
2022/04/24 11:26:26;;;;;;;3.33;1.70;;;23.00;53.00;;;;;;5054196;28;20115;-84
2022/04/24 11:28:52;;;;;;;5.78;1.80;;;23.40;51.20;;;;;;5053547;28;20116;-86
2022/04/24 11:31:19;;;;;;;5.25;2.30;;;23.00;50.20;;;;;;5053335;28;20021;-89
2022/04/24 11:33:58;;;;;;;7.93;1.70;;;22.60;52.80;;;;;;5053261;28;20040;-87
2022/04/24 11:36:32;;;;;;;4.38;1.50;;;22.40;51.20;;;;;;5053142;28;20021;-83
2022/04/24 11:39:00;;;;;;;5.10;1.70;;;22.50;51.80;;;;;;5054687;28;20035;-88
2022/04/24 11:41:31;;;;;;;3.75;1.60;;;22.30;52.50;;;;;;5053094;28;20051;-85
2022/04/24 11:44:01;;;;;;;;;;;22.60;52.20;;;;;;5053596;28;20032;-84
2022/04/24 11:51:55;;;;;;;4.32;1.98;;;22.20;52.10;;;;;;5067286;28;20079;-87
2022/04/24 11:54:22;;;;;;;4.45;1.60;;;22.10;52.60;;;;;;5056657;28;20407;-91
2022/04/24 11:56:51;;;;;;;4.97;1.52;;;22.80;52.30;;;;;;5058146;28;20379;-92
2022/04/24 11:59:26;;;;;;;4.72;1.70;;;23.40;51.10;;;;;;5057736;28;20024;-89
2022/04/24 12:01:57;;;;;;;5.40;1.58;;;23.80;50.00;;;;;;5056068;28;20028;-90
2022/04/24 12:04:31;;;;;;;3.88;1.45;;;23.50;49.90;;;;;;5055964;28;20029;-80
2022/04/24 12:07:05;;;;;;;3.83;1.50;;;23.50;49.70;;;;;;5056726;28;20023;-85
2022/04/24 12:09:33;;;;;;;8.52;1.60;;;23.30;50.20;;;;;;5056414;28;20024;-87
2022/04/24 12:12:09;;;;;;;3.97;1.55;;;23.20;49.90;;;;;;5056285;28;20071;-91
2022/04/24 12:14:35;;;;;;;3.70;1.50;;;22.90;50.90;;;;;;5055933;28;20028;-92
2022/04/24 12:20:16;;;;;;;3.75;1.30;;;24.50;50.70;;;;;;5012013;28;20073;-93
2022/04/24 12:23:31;;;;;;;7.35;2.00;;;24.90;49.20;;;;;;5011842;28;20053;-90
2022/04/24 12:29:50;;;;;;;6.43;2.10;;;24.70;48.80;;;;;;4973219;28;20046;-88
2022/04/24 12:32:17;;;;;;;5.05;1.50;;;24.70;47.90;;;;;;4956845;28;20632;-86
2022/04/24 12:34:45;;;;;;;3.90;1.55;;;24.00;47.90;;;;;;4956697;28;20134;-85
2022/04/24 12:37:15;;;;;;;3.03;1.67;;;24.20;50.20;;;;;;4956829;28;20090;-83
2022/04/24 12:39:52;;;;;;;3.10;1.30;;;24.40;49.00;;;;;;4956792;28;20478;-92
2022/04/24 12:42:19;;;;;;;4.65;1.90;;;25.00;49.10;;;;;;4956776;28;20045;-82
2022/04/24 12:44:46;;;;;;;5.88;1.95;;;24.50;49.30;;;;;;4956553;28;20031;-81
2022/04/24 12:47:12;;;;;;;5.45;1.63;;;23.50;50.00;;;;;;4960182;28;20042;-95